Piedmont, SD (57769)

6:57 AM MDT on August 05, 2015 (GMT -0600)
Elk Creek/Running Deer Trail | | Change Station
CLOSE
Current Station
Personal Weather Station
Location: Piedmont, SD
Elevation: 3225 ft
Nearby Weather Stations

Elev 3225 ft 44.24 °N, 103.31 °W | Updated 3 seconds ago

Partly Cloudy
Partly Cloudy
65.2 °F
Feels Like 65.2 °F
N
3.0
Wind Variable Wind from SW
Gusts 8.0 mph

Today
High -- | Low -- °F
--% Chance of Precip.
Yesterday
High -- | Low -- °F
Precip. -- in
5:44 AM 8:12 PM
Waning Gibbous, 67% visible
Pressure 29.91 in
Visibility 10.0 miles
Clouds Clear
Dew Point 58 °F
Humidity 79%
Rainfall 0.00 in
Snow Depth Not available.
UV 0 out of 12
Pollen 7.90 out of 12
Air Quality Not available.
Flu Activity Not available.
METAR KRCA 051158Z AUTO 28003KT 10SM CLR 18/14 A2997 RMK AO2 SLP127 60000 T01760144 10204 20161 55005 $

More Conditions Fewer Conditions

Pressure 29.91 in
Visibility 10.0 miles
Clouds Clear
Dew Point 58 °F
Humidity 79%
Rainfall 0.00 in
Snow Depth Not available.
UV 0 out of 12
Pollen 7.90 out of 12
Air Quality Not available.
Flu Activity Not available.
METAR KRCA 051158Z AUTO 28003KT 10SM CLR 18/14 A2997 RMK AO2 SLP127 60000 T01760144 10204 20161 55005 $

More Conditions Fewer Conditions

10-Day Weather Forecast

×

Almanac

Astronomy

Aug. 05, 2015 Rise Set
Actual Time
Civil Twilight
Nautical Twilight
Astronomical Twilight
Moon
Length of Visible Light
Length of Day
Tomorrow will be .
, % of the Moon is Illuminated

Today's Extremes

State Highs State Lows

Community

WunderPhotos

Upload Photos

1,844,175 photos uploaded!

WunderBlogs® & News

Nearby

Air Quality

  Air Quality AQ Index Pollutant
Not available.

Snow Depth

Station Depth Elevation

Earthquake Activity

City Distance Mag. Time & Date
Minimum magnitude displayed is 2.5.

Coastal Water Temperatures

Place Temperature

Stations

Nearby Weather Stations

Station Location Temp. Windchill Dew Point Humidity Wind Precip. Elev Updated Type